sensor_id;sensor_type;location;lat;lon;timestamp;P1;durP1;ratioP1;P2;durP2;ratioP2
572;SDS011;271;51.114;13.780;2023-05-07T00:00:46;36.93;;;16.47;;
572;SDS011;271;51.114;13.780;2023-05-07T00:03:34;34.67;;;16.57;;
572;SDS011;271;51.114;13.780;2023-05-07T00:06:22;32.60;;;16.40;;
572;SDS011;271;51.114;13.780;2023-05-07T00:09:10;33.73;;;16.93;;
572;SDS011;271;51.114;13.780;2023-05-07T00:11:57;35.13;;;18.07;;
572;SDS011;271;51.114;13.780;2023-05-07T00:14:46;32.20;;;15.48;;
572;SDS011;271;51.114;13.780;2023-05-07T00:17:34;32.83;;;16.60;;
572;SDS011;271;51.114;13.780;2023-05-07T00:20:22;30.13;;;14.23;;
572;SDS011;271;51.114;13.780;2023-05-07T00:23:09;34.37;;;17.40;;
572;SDS011;271;51.114;13.780;2023-05-07T00:25:57;32.50;;;16.37;;
572;SDS011;271;51.114;13.780;2023-05-07T00:28:45;33.10;;;16.07;;
572;SDS011;271;51.114;13.780;2023-05-07T00:31:34;32.80;;;16.90;;
572;SDS011;271;51.114;13.780;2023-05-07T00:34:21;31.83;;;15.80;;
572;SDS011;271;51.114;13.780;2023-05-07T00:37:09;33.30;;;16.77;;
572;SDS011;271;51.114;13.780;2023-05-07T00:39:57;32.63;;;16.90;;
572;SDS011;271;51.114;13.780;2023-05-07T00:42:45;34.20;;;16.90;;
572;SDS011;271;51.114;13.780;2023-05-07T00:45:34;31.63;;;16.17;;
572;SDS011;271;51.114;13.780;2023-05-07T00:48:23;33.57;;;16.70;;
572;SDS011;271;51.114;13.780;2023-05-07T00:51:12;33.57;;;17.30;;
572;SDS011;271;51.114;13.780;2023-05-07T00:54:00;32.87;;;17.27;;
572;SDS011;271;51.114;13.780;2023-05-07T00:56:49;34.27;;;16.97;;
572;SDS011;271;51.114;13.780;2023-05-07T00:59:37;31.67;;;15.27;;
572;SDS011;271;51.114;13.780;2023-05-07T01:02:26;33.27;;;16.87;;
572;SDS011;271;51.114;13.780;2023-05-07T01:05:15;32.90;;;16.70;;
572;SDS011;271;51.114;13.780;2023-05-07T01:08:05;32.00;;;16.17;;
572;SDS011;271;51.114;13.780;2023-05-07T01:10:53;34.03;;;16.07;;
572;SDS011;271;51.114;13.780;2023-05-07T01:13:42;35.80;;;17.90;;
572;SDS011;271;51.114;13.780;2023-05-07T01:16:30;31.40;;;15.57;;
572;SDS011;271;51.114;13.780;2023-05-07T01:19:19;33.00;;;17.53;;
572;SDS011;271;51.114;13.780;2023-05-07T01:22:09;36.47;;;18.80;;
572;SDS011;271;51.114;13.780;2023-05-07T01:24:59;31.67;;;15.90;;
572;SDS011;271;51.114;13.780;2023-05-07T01:27:47;32.87;;;15.63;;
572;SDS011;271;51.114;13.780;2023-05-07T01:30:35;31.33;;;16.10;;
572;SDS011;271;51.114;13.780;2023-05-07T01:33:24;30.30;;;15.43;;
572;SDS011;271;51.114;13.780;2023-05-07T01:36:13;34.73;;;15.93;;
572;SDS011;271;51.114;13.780;2023-05-07T01:39:01;34.93;;;16.30;;
572;SDS011;271;51.114;13.780;2023-05-07T01:41:51;31.70;;;15.50;;
572;SDS011;271;51.114;13.780;2023-05-07T01:44:39;33.27;;;15.70;;
572;SDS011;271;51.114;13.780;2023-05-07T01:47:27;31.80;;;16.00;;
572;SDS011;271;51.114;13.780;2023-05-07T01:50:15;31.27;;;16.03;;
572;SDS011;271;51.114;13.780;2023-05-07T01:53:05;30.63;;;15.50;;
572;SDS011;271;51.114;13.780;2023-05-07T01:55:53;31.70;;;14.63;;
572;SDS011;271;51.114;13.780;2023-05-07T01:58:42;30.40;;;14.63;;
572;SDS011;271;51.114;13.780;2023-05-07T02:01:29;29.43;;;14.00;;
572;SDS011;271;51.114;13.780;2023-05-07T02:04:17;30.33;;;15.00;;
572;SDS011;271;51.114;13.780;2023-05-07T02:07:05;30.47;;;14.20;;
572;SDS011;271;51.114;13.780;2023-05-07T02:09:52;31.60;;;14.63;;
572;SDS011;271;51.114;13.780;2023-05-07T02:12:41;30.10;;;13.73;;
572;SDS011;271;51.114;13.780;2023-05-07T02:15:30;31.07;;;14.37;;
572;SDS011;271;51.114;13.780;2023-05-07T02:18:18;29.93;;;14.10;;
572;SDS011;271;51.114;13.780;2023-05-07T02:21:05;33.13;;;14.77;;
572;SDS011;271;51.114;13.780;2023-05-07T02:23:53;29.63;;;14.10;;
572;SDS011;271;51.114;13.780;2023-05-07T02:26:41;32.27;;;14.27;;
572;SDS011;271;51.114;13.780;2023-05-07T02:29:28;31.58;;;14.48;;
572;SDS011;271;51.114;13.780;2023-05-07T02:32:17;29.93;;;13.10;;
572;SDS011;271;51.114;13.780;2023-05-07T02:35:05;28.40;;;12.60;;
572;SDS011;271;51.114;13.780;2023-05-07T02:37:53;29.10;;;13.17;;
572;SDS011;271;51.114;13.780;2023-05-07T02:40:41;28.83;;;13.10;;
572;SDS011;271;51.114;13.780;2023-05-07T02:43:29;28.17;;;12.27;;
572;SDS011;271;51.114;13.780;2023-05-07T02:46:16;27.43;;;11.43;;
572;SDS011;271;51.114;13.780;2023-05-07T02:49:05;28.23;;;12.80;;
572;SDS011;271;51.114;13.780;2023-05-07T02:51:53;27.67;;;12.07;;
572;SDS011;271;51.114;13.780;2023-05-07T02:54:41;28.33;;;12.50;;
572;SDS011;271;51.114;13.780;2023-05-07T02:57:29;30.30;;;13.47;;
572;SDS011;271;51.114;13.780;2023-05-07T03:00:17;31.57;;;14.17;;
572;SDS011;271;51.114;13.780;2023-05-07T03:03:06;27.30;;;12.55;;
572;SDS011;271;51.114;13.780;2023-05-07T03:05:55;27.37;;;12.17;;
572;SDS011;271;51.114;13.780;2023-05-07T03:08:42;28.33;;;12.37;;
572;SDS011;271;51.114;13.780;2023-05-07T03:11:31;29.03;;;12.30;;
572;SDS011;271;51.114;13.780;2023-05-07T03:14:19;28.17;;;12.07;;
572;SDS011;271;51.114;13.780;2023-05-07T03:17:07;26.33;;;11.47;;
572;SDS011;271;51.114;13.780;2023-05-07T03:19:55;28.97;;;12.33;;
572;SDS011;271;51.114;13.780;2023-05-07T03:22:44;29.13;;;12.10;;
572;SDS011;271;51.114;13.780;2023-05-07T03:25:31;30.30;;;12.70;;
572;SDS011;271;51.114;13.780;2023-05-07T03:28:19;27.77;;;12.63;;
572;SDS011;271;51.114;13.780;2023-05-07T03:31:06;28.17;;;11.80;;
572;SDS011;271;51.114;13.780;2023-05-07T03:33:54;28.50;;;12.53;;
572;SDS011;271;51.114;13.780;2023-05-07T03:36:43;25.63;;;10.73;;
572;SDS011;271;51.114;13.780;2023-05-07T03:39:32;25.03;;;11.00;;
572;SDS011;271;51.114;13.780;2023-05-07T03:42:20;28.47;;;11.57;;
572;SDS011;271;51.114;13.780;2023-05-07T03:45:08;28.53;;;12.20;;
572;SDS011;271;51.114;13.780;2023-05-07T03:47:56;26.57;;;11.70;;
572;SDS011;271;51.114;13.780;2023-05-07T03:50:43;29.27;;;12.90;;
572;SDS011;271;51.114;13.780;2023-05-07T03:53:32;30.17;;;14.37;;
572;SDS011;271;51.114;13.780;2023-05-07T03:56:21;31.57;;;13.83;;
572;SDS011;271;51.114;13.780;2023-05-07T03:59:08;29.13;;;12.40;;
572;SDS011;271;51.114;13.780;2023-05-07T04:01:56;31.37;;;13.17;;
572;SDS011;271;51.114;13.780;2023-05-07T04:04:44;35.37;;;14.00;;
572;SDS011;271;51.114;13.780;2023-05-07T04:07:32;32.57;;;14.57;;
572;SDS011;271;51.114;13.780;2023-05-07T04:10:19;29.75;;;13.98;;
572;SDS011;271;51.114;13.780;2023-05-07T04:13:08;32.10;;;13.85;;
572;SDS011;271;51.114;13.780;2023-05-07T04:15:56;30.20;;;13.65;;
572;SDS011;271;51.114;13.780;2023-05-07T04:18:44;30.10;;;13.80;;
572;SDS011;271;51.114;13.780;2023-05-07T04:21:31;29.17;;;12.70;;
572;SDS011;271;51.114;13.780;2023-05-07T04:24:19;33.07;;;14.10;;
572;SDS011;271;51.114;13.780;2023-05-07T04:27:07;34.33;;;15.00;;
572;SDS011;271;51.114;13.780;2023-05-07T04:29:56;30.97;;;14.77;;
572;SDS011;271;51.114;13.780;2023-05-07T04:32:43;33.00;;;14.00;;
572;SDS011;271;51.114;13.780;2023-05-07T04:35:31;33.42;;;14.25;;
572;SDS011;271;51.114;13.780;2023-05-07T04:38:19;31.30;;;13.93;;
572;SDS011;271;51.114;13.780;2023-05-07T04:41:06;31.53;;;13.97;;
572;SDS011;271;51.114;13.780;2023-05-07T04:43:55;32.30;;;13.00;;
572;SDS011;271;51.114;13.780;2023-05-07T04:46:46;31.77;;;14.90;;
572;SDS011;271;51.114;13.780;2023-05-07T04:49:34;33.77;;;13.93;;
572;SDS011;271;51.114;13.780;2023-05-07T04:52:21;31.37;;;14.37;;
572;SDS011;271;51.114;13.780;2023-05-07T04:55:09;31.33;;;14.90;;
572;SDS011;271;51.114;13.780;2023-05-07T04:57:57;32.40;;;13.98;;
572;SDS011;271;51.114;13.780;2023-05-07T05:00:46;31.00;;;14.17;;
572;SDS011;271;51.114;13.780;2023-05-07T05:03:35;30.50;;;13.53;;
572;SDS011;271;51.114;13.780;2023-05-07T05:06:23;33.30;;;14.57;;
572;SDS011;271;51.114;13.780;2023-05-07T05:09:11;28.63;;;12.73;;
572;SDS011;271;51.114;13.780;2023-05-07T05:11:59;31.97;;;14.13;;
572;SDS011;271;51.114;13.780;2023-05-07T05:14:46;30.90;;;13.00;;
572;SDS011;271;51.114;13.780;2023-05-07T05:17:34;28.97;;;13.23;;
572;SDS011;271;51.114;13.780;2023-05-07T05:20:23;31.30;;;13.23;;
572;SDS011;271;51.114;13.780;2023-05-07T05:23:11;30.93;;;12.90;;
572;SDS011;271;51.114;13.780;2023-05-07T05:25:59;28.97;;;12.37;;
572;SDS011;271;51.114;13.780;2023-05-07T05:28:47;27.13;;;11.33;;
572;SDS011;271;51.114;13.780;2023-05-07T05:31:35;28.93;;;12.13;;
572;SDS011;271;51.114;13.780;2023-05-07T05:34:23;28.83;;;12.97;;
572;SDS011;271;51.114;13.780;2023-05-07T05:37:12;27.40;;;11.67;;
572;SDS011;271;51.114;13.780;2023-05-07T05:39:59;30.10;;;12.77;;
572;SDS011;271;51.114;13.780;2023-05-07T05:42:47;29.93;;;12.50;;
572;SDS011;271;51.114;13.780;2023-05-07T05:45:34;27.30;;;11.77;;
572;SDS011;271;51.114;13.780;2023-05-07T05:48:22;26.70;;;11.23;;
572;SDS011;271;51.114;13.780;2023-05-07T05:51:10;27.13;;;10.60;;
572;SDS011;271;51.114;13.780;2023-05-07T05:53:59;28.40;;;11.60;;
572;SDS011;271;51.114;13.780;2023-05-07T05:56:47;27.03;;;10.33;;
572;SDS011;271;51.114;13.780;2023-05-07T05:59:35;25.40;;;9.20;;
572;SDS011;271;51.114;13.780;2023-05-07T06:02:23;25.90;;;9.43;;
572;SDS011;271;51.114;13.780;2023-05-07T06:05:11;25.27;;;8.90;;
572;SDS011;271;51.114;13.780;2023-05-07T06:07:58;24.47;;;8.87;;
572;SDS011;271;51.114;13.780;2023-05-07T06:10:47;24.30;;;9.43;;
572;SDS011;271;51.114;13.780;2023-05-07T06:13:35;22.73;;;8.07;;
572;SDS011;271;51.114;13.780;2023-05-07T06:16:24;26.10;;;9.93;;
572;SDS011;271;51.114;13.780;2023-05-07T06:19:12;24.13;;;9.33;;
572;SDS011;271;51.114;13.780;2023-05-07T06:22:00;23.07;;;8.23;;
572;SDS011;271;51.114;13.780;2023-05-07T06:24:48;22.87;;;7.67;;
572;SDS011;271;51.114;13.780;2023-05-07T06:27:37;23.40;;;7.30;;
572;SDS011;271;51.114;13.780;2023-05-07T06:30:26;23.00;;;7.93;;
572;SDS011;271;51.114;13.780;2023-05-07T06:33:14;24.80;;;9.15;;
572;SDS011;271;51.114;13.780;2023-05-07T06:36:01;23.93;;;8.67;;
572;SDS011;271;51.114;13.780;2023-05-07T06:38:49;23.70;;;8.10;;
572;SDS011;271;51.114;13.780;2023-05-07T06:41:37;23.10;;;8.40;;
572;SDS011;271;51.114;13.780;2023-05-07T06:44:26;23.57;;;9.13;;
572;SDS011;271;51.114;13.780;2023-05-07T06:47:14;23.98;;;8.43;;
572;SDS011;271;51.114;13.780;2023-05-07T06:50:03;24.00;;;8.33;;
572;SDS011;271;51.114;13.780;2023-05-07T06:52:51;23.67;;;8.10;;
572;SDS011;271;51.114;13.780;2023-05-07T06:55:39;20.40;;;6.57;;
572;SDS011;271;51.114;13.780;2023-05-07T06:58:27;20.70;;;6.60;;
572;SDS011;271;51.114;13.780;2023-05-07T07:01:16;20.00;;;6.10;;
572;SDS011;271;51.114;13.780;2023-05-07T07:04:04;19.83;;;6.10;;
572;SDS011;271;51.114;13.780;2023-05-07T07:06:52;19.60;;;5.97;;
572;SDS011;271;51.114;13.780;2023-05-07T07:09:42;20.33;;;5.80;;
572;SDS011;271;51.114;13.780;2023-05-07T07:12:30;19.90;;;6.07;;
572;SDS011;271;51.114;13.780;2023-05-07T07:15:17;18.60;;;5.40;;
572;SDS011;271;51.114;13.780;2023-05-07T07:18:07;18.13;;;4.73;;
572;SDS011;271;51.114;13.780;2023-05-07T07:20:55;20.33;;;5.77;;
572;SDS011;271;51.114;13.780;2023-05-07T07:23:44;19.90;;;6.07;;
572;SDS011;271;51.114;13.780;2023-05-07T07:26:32;19.37;;;5.70;;
572;SDS011;271;51.114;13.780;2023-05-07T07:29:19;18.60;;;5.30;;
572;SDS011;271;51.114;13.780;2023-05-07T07:32:07;21.80;;;5.27;;
572;SDS011;271;51.114;13.780;2023-05-07T07:34:56;19.45;;;5.93;;
572;SDS011;271;51.114;13.780;2023-05-07T07:37:44;20.15;;;5.65;;
572;SDS011;271;51.114;13.780;2023-05-07T07:40:33;18.35;;;5.18;;
572;SDS011;271;51.114;13.780;2023-05-07T07:43:21;18.85;;;5.40;;
572;SDS011;271;51.114;13.780;2023-05-07T07:46:13;18.07;;;4.73;;
572;SDS011;271;51.114;13.780;2023-05-07T07:49:00;18.70;;;5.37;;
572;SDS011;271;51.114;13.780;2023-05-07T07:51:50;18.67;;;4.70;;
572;SDS011;271;51.114;13.780;2023-05-07T07:54:40;18.90;;;5.33;;
572;SDS011;271;51.114;13.780;2023-05-07T07:57:28;18.00;;;4.80;;
572;SDS011;271;51.114;13.780;2023-05-07T08:00:16;18.30;;;4.60;;
572;SDS011;271;51.114;13.780;2023-05-07T08:03:04;17.97;;;4.77;;
572;SDS011;271;51.114;13.780;2023-05-07T08:05:53;18.97;;;5.33;;
572;SDS011;271;51.114;13.780;2023-05-07T08:08:42;18.33;;;5.17;;
572;SDS011;271;51.114;13.780;2023-05-07T08:11:29;18.60;;;5.40;;
572;SDS011;271;51.114;13.780;2023-05-07T08:14:17;19.00;;;5.53;;
572;SDS011;271;51.114;13.780;2023-05-07T08:17:05;17.67;;;4.40;;
572;SDS011;271;51.114;13.780;2023-05-07T08:19:55;17.97;;;4.30;;
572;SDS011;271;51.114;13.780;2023-05-07T08:22:43;17.97;;;4.93;;
572;SDS011;271;51.114;13.780;2023-05-07T08:25:33;18.47;;;5.27;;
572;SDS011;271;51.114;13.780;2023-05-07T08:28:21;18.50;;;5.10;;
572;SDS011;271;51.114;13.780;2023-05-07T08:31:10;18.73;;;5.53;;
572;SDS011;271;51.114;13.780;2023-05-07T08:33:59;19.60;;;6.47;;
572;SDS011;271;51.114;13.780;2023-05-07T08:36:47;21.20;;;6.07;;
572;SDS011;271;51.114;13.780;2023-05-07T08:39:34;21.50;;;6.67;;
572;SDS011;271;51.114;13.780;2023-05-07T08:42:24;20.20;;;6.37;;
572;SDS011;271;51.114;13.780;2023-05-07T08:45:12;20.70;;;6.60;;
572;SDS011;271;51.114;13.780;2023-05-07T08:48:02;19.43;;;6.20;;
572;SDS011;271;51.114;13.780;2023-05-07T08:50:52;20.10;;;6.70;;
572;SDS011;271;51.114;13.780;2023-05-07T08:53:40;17.87;;;5.90;;
572;SDS011;271;51.114;13.780;2023-05-07T08:56:28;19.23;;;5.77;;
572;SDS011;271;51.114;13.780;2023-05-07T08:59:17;18.77;;;5.70;;
572;SDS011;271;51.114;13.780;2023-05-07T09:02:05;20.77;;;6.20;;
572;SDS011;271;51.114;13.780;2023-05-07T09:04:56;21.27;;;7.17;;
572;SDS011;271;51.114;13.780;2023-05-07T09:07:44;19.60;;;6.20;;
572;SDS011;271;51.114;13.780;2023-05-07T09:10:33;21.50;;;6.90;;
572;SDS011;271;51.114;13.780;2023-05-07T09:13:21;21.67;;;7.40;;
572;SDS011;271;51.114;13.780;2023-05-07T09:16:13;21.07;;;7.50;;
572;SDS011;271;51.114;13.780;2023-05-07T09:19:02;22.70;;;8.20;;
572;SDS011;271;51.114;13.780;2023-05-07T09:21:49;21.67;;;7.73;;
572;SDS011;271;51.114;13.780;2023-05-07T09:24:46;22.17;;;7.77;;
572;SDS011;271;51.114;13.780;2023-05-07T09:27:35;21.50;;;7.80;;
572;SDS011;271;51.114;13.780;2023-05-07T09:30:23;20.10;;;6.60;;
572;SDS011;271;51.114;13.780;2023-05-07T09:33:16;20.67;;;7.30;;
572;SDS011;271;51.114;13.780;2023-05-07T09:36:05;20.47;;;7.10;;
572;SDS011;271;51.114;13.780;2023-05-07T09:38:53;20.07;;;7.73;;
572;SDS011;271;51.114;13.780;2023-05-07T09:41:45;19.87;;;6.83;;
572;SDS011;271;51.114;13.780;2023-05-07T09:44:35;21.83;;;7.30;;
572;SDS011;271;51.114;13.780;2023-05-07T09:47:25;21.20;;;7.40;;
572;SDS011;271;51.114;13.780;2023-05-07T09:50:20;21.97;;;8.40;;
572;SDS011;271;51.114;13.780;2023-05-07T09:53:12;24.00;;;8.90;;
572;SDS011;271;51.114;13.780;2023-05-07T09:56:03;23.90;;;8.83;;
572;SDS011;271;51.114;13.780;2023-05-07T09:58:52;21.73;;;8.20;;
572;SDS011;271;51.114;13.780;2023-05-07T10:01:43;20.97;;;7.20;;
572;SDS011;271;51.114;13.780;2023-05-07T10:04:31;23.73;;;7.77;;
572;SDS011;271;51.114;13.780;2023-05-07T10:07:26;21.40;;;7.70;;
572;SDS011;271;51.114;13.780;2023-05-07T10:10:16;21.93;;;7.80;;
572;SDS011;271;51.114;13.780;2023-05-07T10:13:05;22.07;;;7.80;;
572;SDS011;271;51.114;13.780;2023-05-07T10:15:57;21.37;;;7.97;;
572;SDS011;271;51.114;13.780;2023-05-07T10:18:45;22.50;;;8.13;;
572;SDS011;271;51.114;13.780;2023-05-07T10:21:35;20.87;;;6.80;;
572;SDS011;271;51.114;13.780;2023-05-07T10:24:26;21.80;;;7.80;;
572;SDS011;271;51.114;13.780;2023-05-07T10:27:17;21.37;;;7.80;;
572;SDS011;271;51.114;13.780;2023-05-07T10:30:07;22.00;;;7.93;;
572;SDS011;271;51.114;13.780;2023-05-07T10:33:09;22.17;;;7.73;;
572;SDS011;271;51.114;13.780;2023-05-07T10:36:04;22.10;;;7.13;;
572;SDS011;271;51.114;13.780;2023-05-07T10:39:04;24.50;;;7.27;;
572;SDS011;271;51.114;13.780;2023-05-07T10:41:54;19.67;;;6.13;;
572;SDS011;271;51.114;13.780;2023-05-07T10:44:56;19.60;;;6.30;;
572;SDS011;271;51.114;13.780;2023-05-07T10:54:19;22.00;;;7.77;;
572;SDS011;271;51.114;13.780;2023-05-07T11:10:54;19.70;;;6.60;;
572;SDS011;271;51.114;13.780;2023-05-07T11:14:02;19.27;;;5.50;;
572;SDS011;271;51.114;13.780;2023-05-07T11:17:00;19.80;;;6.23;;
572;SDS011;271;51.114;13.780;2023-05-07T11:27:24;19.30;;;5.67;;
572;SDS011;271;51.114;13.780;2023-05-07T11:30:24;18.80;;;5.67;;
572;SDS011;271;51.114;13.780;2023-05-07T11:33:20;20.80;;;6.00;;
572;SDS011;271;51.114;13.780;2023-05-07T11:36:14;20.33;;;6.33;;
572;SDS011;271;51.114;13.780;2023-05-07T11:39:04;19.47;;;6.30;;
572;SDS011;271;51.114;13.780;2023-05-07T11:41:53;19.23;;;5.57;;
572;SDS011;271;51.114;13.780;2023-05-07T11:44:43;19.37;;;5.73;;
572;SDS011;271;51.114;13.780;2023-05-07T11:47:36;19.00;;;5.77;;
572;SDS011;271;51.114;13.780;2023-05-07T11:53:38;20.43;;;6.03;;
572;SDS011;271;51.114;13.780;2023-05-07T11:56:26;19.73;;;5.87;;
572;SDS011;271;51.114;13.780;2023-05-07T11:59:17;18.27;;;5.60;;
572;SDS011;271;51.114;13.780;2023-05-07T12:02:05;19.47;;;6.27;;
572;SDS011;271;51.114;13.780;2023-05-07T12:04:55;20.20;;;6.70;;
572;SDS011;271;51.114;13.780;2023-05-07T12:07:43;20.10;;;5.37;;
572;SDS011;271;51.114;13.780;2023-05-07T12:10:30;19.00;;;6.03;;
572;SDS011;271;51.114;13.780;2023-05-07T12:13:18;19.07;;;5.67;;
572;SDS011;271;51.114;13.780;2023-05-07T12:16:07;20.20;;;6.37;;
572;SDS011;271;51.114;13.780;2023-05-07T12:18:55;19.90;;;6.20;;
572;SDS011;271;51.114;13.780;2023-05-07T12:21:46;19.40;;;5.53;;
572;SDS011;271;51.114;13.780;2023-05-07T12:24:44;18.60;;;5.70;;
572;SDS011;271;51.114;13.780;2023-05-07T12:27:32;19.27;;;6.17;;
572;SDS011;271;51.114;13.780;2023-05-07T12:30:45;18.80;;;5.43;;
572;SDS011;271;51.114;13.780;2023-05-07T12:33:34;19.30;;;5.70;;
572;SDS011;271;51.114;13.780;2023-05-07T12:36:22;19.37;;;5.60;;
572;SDS011;271;51.114;13.780;2023-05-07T12:39:13;18.90;;;6.00;;
572;SDS011;271;51.114;13.780;2023-05-07T12:42:00;20.20;;;5.90;;
572;SDS011;271;51.114;13.780;2023-05-07T12:44:48;18.80;;;6.27;;
572;SDS011;271;51.114;13.780;2023-05-07T12:47:36;18.70;;;5.77;;
572;SDS011;271;51.114;13.780;2023-05-07T12:50:24;18.60;;;5.60;;
572;SDS011;271;51.114;13.780;2023-05-07T12:53:12;19.13;;;5.70;;
572;SDS011;271;51.114;13.780;2023-05-07T12:56:02;19.17;;;5.93;;
572;SDS011;271;51.114;13.780;2023-05-07T12:58:52;19.03;;;5.50;;
572;SDS011;271;51.114;13.780;2023-05-07T13:01:45;19.77;;;5.40;;
572;SDS011;271;51.114;13.780;2023-05-07T13:04:32;18.77;;;5.30;;
572;SDS011;271;51.114;13.780;2023-05-07T13:07:20;18.47;;;5.00;;
572;SDS011;271;51.114;13.780;2023-05-07T13:10:12;17.53;;;4.70;;
572;SDS011;271;51.114;13.780;2023-05-07T13:13:01;17.93;;;4.57;;
572;SDS011;271;51.114;13.780;2023-05-07T13:15:48;18.70;;;5.20;;
572;SDS011;271;51.114;13.780;2023-05-07T13:18:37;20.20;;;5.40;;
572;SDS011;271;51.114;13.780;2023-05-07T13:21:26;17.20;;;4.70;;
572;SDS011;271;51.114;13.780;2023-05-07T13:24:13;17.70;;;4.60;;
572;SDS011;271;51.114;13.780;2023-05-07T13:27:01;17.83;;;4.67;;
572;SDS011;271;51.114;13.780;2023-05-07T13:29:51;17.47;;;4.73;;
572;SDS011;271;51.114;13.780;2023-05-07T13:32:39;18.20;;;4.80;;
572;SDS011;271;51.114;13.780;2023-05-07T13:35:26;17.97;;;5.00;;
572;SDS011;271;51.114;13.780;2023-05-07T13:38:14;17.80;;;4.60;;
572;SDS011;271;51.114;13.780;2023-05-07T13:41:02;17.27;;;4.40;;
572;SDS011;271;51.114;13.780;2023-05-07T13:43:50;17.80;;;4.47;;
572;SDS011;271;51.114;13.780;2023-05-07T13:46:39;17.10;;;4.30;;
572;SDS011;271;51.114;13.780;2023-05-07T13:49:27;17.30;;;4.70;;
572;SDS011;271;51.114;13.780;2023-05-07T13:52:18;17.77;;;4.93;;
572;SDS011;271;51.114;13.780;2023-05-07T13:55:06;18.13;;;4.90;;
572;SDS011;271;51.114;13.780;2023-05-07T13:57:56;17.60;;;4.30;;
572;SDS011;271;51.114;13.780;2023-05-07T14:00:45;17.40;;;4.87;;
572;SDS011;271;51.114;13.780;2023-05-07T14:03:34;16.60;;;3.80;;
572;SDS011;271;51.114;13.780;2023-05-07T14:06:24;18.33;;;4.93;;
572;SDS011;271;51.114;13.780;2023-05-07T14:09:14;18.37;;;5.20;;
572;SDS011;271;51.114;13.780;2023-05-07T14:12:02;17.10;;;4.40;;
572;SDS011;271;51.114;13.780;2023-05-07T14:14:51;18.67;;;4.87;;
572;SDS011;271;51.114;13.780;2023-05-07T14:17:38;17.43;;;4.57;;
572;SDS011;271;51.114;13.780;2023-05-07T14:20:27;17.13;;;3.93;;
572;SDS011;271;51.114;13.780;2023-05-07T14:23:16;17.07;;;3.47;;
572;SDS011;271;51.114;13.780;2023-05-07T14:26:05;17.40;;;4.23;;
572;SDS011;271;51.114;13.780;2023-05-07T14:28:54;17.57;;;4.33;;
572;SDS011;271;51.114;13.780;2023-05-07T14:31:44;17.00;;;4.23;;
572;SDS011;271;51.114;13.780;2023-05-07T14:34:31;17.43;;;4.73;;
572;SDS011;271;51.114;13.780;2023-05-07T14:37:21;18.57;;;5.37;;
572;SDS011;271;51.114;13.780;2023-05-07T14:40:09;18.63;;;5.53;;
572;SDS011;271;51.114;13.780;2023-05-07T14:42:59;18.50;;;5.40;;
572;SDS011;271;51.114;13.780;2023-05-07T14:45:47;18.90;;;5.57;;
572;SDS011;271;51.114;13.780;2023-05-07T14:48:35;18.17;;;5.23;;
572;SDS011;271;51.114;13.780;2023-05-07T14:51:23;18.60;;;5.47;;
572;SDS011;271;51.114;13.780;2023-05-07T14:54:15;17.90;;;4.90;;
572;SDS011;271;51.114;13.780;2023-05-07T14:57:04;18.03;;;5.17;;
572;SDS011;271;51.114;13.780;2023-05-07T14:59:52;18.10;;;5.13;;
572;SDS011;271;51.114;13.780;2023-05-07T15:02:40;19.27;;;4.90;;
572;SDS011;271;51.114;13.780;2023-05-07T15:05:30;17.70;;;4.57;;
572;SDS011;271;51.114;13.780;2023-05-07T15:08:18;18.33;;;5.30;;
572;SDS011;271;51.114;13.780;2023-05-07T15:11:10;18.97;;;4.67;;
572;SDS011;271;51.114;13.780;2023-05-07T15:13:58;18.60;;;6.10;;
572;SDS011;271;51.114;13.780;2023-05-07T15:16:46;18.80;;;6.20;;
572;SDS011;271;51.114;13.780;2023-05-07T15:19:33;18.63;;;5.33;;
572;SDS011;271;51.114;13.780;2023-05-07T15:22:24;17.67;;;4.77;;
572;SDS011;271;51.114;13.780;2023-05-07T15:25:13;19.27;;;5.90;;
572;SDS011;271;51.114;13.780;2023-05-07T15:28:02;19.37;;;5.57;;
572;SDS011;271;51.114;13.780;2023-05-07T15:30:50;18.33;;;5.60;;
572;SDS011;271;51.114;13.780;2023-05-07T15:33:41;18.93;;;6.00;;
572;SDS011;271;51.114;13.780;2023-05-07T15:36:30;18.43;;;5.70;;
572;SDS011;271;51.114;13.780;2023-05-07T15:39:18;17.97;;;5.70;;
572;SDS011;271;51.114;13.780;2023-05-07T15:42:06;19.20;;;6.87;;
572;SDS011;271;51.114;13.780;2023-05-07T15:44:58;19.27;;;6.77;;
572;SDS011;271;51.114;13.780;2023-05-07T15:47:47;19.87;;;6.80;;
572;SDS011;271;51.114;13.780;2023-05-07T15:50:35;19.77;;;6.67;;
572;SDS011;271;51.114;13.780;2023-05-07T15:53:23;21.27;;;6.00;;
572;SDS011;271;51.114;13.780;2023-05-07T15:56:10;19.40;;;5.53;;
572;SDS011;271;51.114;13.780;2023-05-07T15:58:58;23.40;;;6.50;;
572;SDS011;271;51.114;13.780;2023-05-07T16:01:51;18.83;;;6.10;;
572;SDS011;271;51.114;13.780;2023-05-07T16:04:40;19.17;;;6.20;;
572;SDS011;271;51.114;13.780;2023-05-07T16:07:38;20.23;;;5.70;;
572;SDS011;271;51.114;13.780;2023-05-07T16:10:27;19.13;;;5.20;;
572;SDS011;271;51.114;13.780;2023-05-07T16:13:16;18.00;;;5.30;;
572;SDS011;271;51.114;13.780;2023-05-07T16:16:05;18.70;;;5.47;;
572;SDS011;271;51.114;13.780;2023-05-07T16:18:54;19.47;;;6.37;;
572;SDS011;271;51.114;13.780;2023-05-07T16:21:42;19.30;;;6.03;;
572;SDS011;271;51.114;13.780;2023-05-07T16:24:30;18.63;;;5.50;;
572;SDS011;271;51.114;13.780;2023-05-07T16:27:18;20.97;;;6.70;;
572;SDS011;271;51.114;13.780;2023-05-07T16:30:06;19.23;;;6.67;;
572;SDS011;271;51.114;13.780;2023-05-07T16:32:54;19.73;;;6.37;;
572;SDS011;271;51.114;13.780;2023-05-07T16:35:43;19.40;;;6.43;;
572;SDS011;271;51.114;13.780;2023-05-07T16:38:36;19.00;;;5.87;;
572;SDS011;271;51.114;13.780;2023-05-07T16:41:24;19.03;;;5.90;;
572;SDS011;271;51.114;13.780;2023-05-07T16:44:12;18.70;;;5.70;;
572;SDS011;271;51.114;13.780;2023-05-07T16:46:59;18.43;;;5.57;;
572;SDS011;271;51.114;13.780;2023-05-07T16:49:47;19.23;;;6.50;;
572;SDS011;271;51.114;13.780;2023-05-07T16:52:36;19.63;;;6.40;;
572;SDS011;271;51.114;13.780;2023-05-07T16:55:24;19.83;;;6.27;;
572;SDS011;271;51.114;13.780;2023-05-07T16:58:12;20.13;;;6.50;;
572;SDS011;271;51.114;13.780;2023-05-07T17:01:00;20.40;;;6.57;;
572;SDS011;271;51.114;13.780;2023-05-07T17:03:48;19.00;;;6.10;;
572;SDS011;271;51.114;13.780;2023-05-07T17:06:36;20.60;;;6.67;;
572;SDS011;271;51.114;13.780;2023-05-07T17:09:25;18.40;;;5.77;;
572;SDS011;271;51.114;13.780;2023-05-07T17:12:16;19.60;;;6.30;;
572;SDS011;271;51.114;13.780;2023-05-07T17:15:04;19.20;;;5.70;;
572;SDS011;271;51.114;13.780;2023-05-07T17:17:56;19.30;;;6.37;;
572;SDS011;271;51.114;13.780;2023-05-07T17:20:47;19.77;;;6.37;;
572;SDS011;271;51.114;13.780;2023-05-07T17:23:38;19.17;;;5.90;;
572;SDS011;271;51.114;13.780;2023-05-07T17:26:31;18.90;;;5.30;;
572;SDS011;271;51.114;13.780;2023-05-07T17:29:21;18.43;;;5.67;;
572;SDS011;271;51.114;13.780;2023-05-07T17:32:12;18.80;;;5.40;;
572;SDS011;271;51.114;13.780;2023-05-07T17:34:59;18.57;;;5.63;;
572;SDS011;271;51.114;13.780;2023-05-07T17:37:47;19.63;;;6.10;;
572;SDS011;271;51.114;13.780;2023-05-07T17:40:37;18.60;;;5.47;;
572;SDS011;271;51.114;13.780;2023-05-07T17:43:26;19.23;;;5.50;;
572;SDS011;271;51.114;13.780;2023-05-07T17:46:14;19.70;;;5.47;;
572;SDS011;271;51.114;13.780;2023-05-07T17:49:03;18.90;;;5.33;;
572;SDS011;271;51.114;13.780;2023-05-07T17:51:52;19.53;;;6.20;;
572;SDS011;271;51.114;13.780;2023-05-07T17:54:46;18.90;;;5.63;;